sensor_id;sensor_type;location;lat;lon;timestamp;P1;durP1;ratioP1;P2;durP2;ratioP2
20491;SDS011;10404;51.468;6.762;2023-09-19T00:00:37;4.13;;;1.48;;
20491;SDS011;10404;51.468;6.762;2023-09-19T00:03:03;5.50;;;1.55;;
20491;SDS011;10404;51.468;6.762;2023-09-19T00:05:33;5.05;;;1.45;;
20491;SDS011;10404;51.468;6.762;2023-09-19T00:08:00;3.40;;;1.75;;
20491;SDS011;10404;51.468;6.762;2023-09-19T00:10:29;3.60;;;1.40;;
20491;SDS011;10404;51.468;6.762;2023-09-19T00:12:59;2.25;;;1.63;;
20491;SDS011;10404;51.468;6.762;2023-09-19T00:15:26;5.00;;;1.60;;
20491;SDS011;10404;51.468;6.762;2023-09-19T00:17:54;4.10;;;1.50;;
20491;SDS011;10404;51.468;6.762;2023-09-19T00:20:20;4.38;;;1.67;;
20491;SDS011;10404;51.468;6.762;2023-09-19T00:22:48;4.00;;;1.88;;
20491;SDS011;10404;51.468;6.762;2023-09-19T00:25:18;4.53;;;1.50;;
20491;SDS011;10404;51.468;6.762;2023-09-19T00:27:44;2.92;;;1.15;;
20491;SDS011;10404;51.468;6.762;2023-09-19T00:30:10;4.22;;;1.58;;
20491;SDS011;10404;51.468;6.762;2023-09-19T00:32:44;4.68;;;1.33;;
20491;SDS011;10404;51.468;6.762;2023-09-19T00:35:12;4.43;;;1.50;;
20491;SDS011;10404;51.468;6.762;2023-09-19T00:37:40;4.18;;;1.40;;
20491;SDS011;10404;51.468;6.762;2023-09-19T00:40:06;3.42;;;1.35;;
20491;SDS011;10404;51.468;6.762;2023-09-19T00:42:37;3.35;;;1.48;;
20491;SDS011;10404;51.468;6.762;2023-09-19T00:45:03;4.22;;;1.60;;
20491;SDS011;10404;51.468;6.762;2023-09-19T00:47:30;4.25;;;1.85;;
20491;SDS011;10404;51.468;6.762;2023-09-19T00:49:56;4.63;;;1.55;;
20491;SDS011;10404;51.468;6.762;2023-09-19T00:52:22;5.00;;;1.63;;
20491;SDS011;10404;51.468;6.762;2023-09-19T00:54:48;4.63;;;1.80;;
20491;SDS011;10404;51.468;6.762;2023-09-19T00:57:14;5.30;;;1.42;;
20491;SDS011;10404;51.468;6.762;2023-09-19T00:59:40;5.15;;;1.77;;
20491;SDS011;10404;51.468;6.762;2023-09-19T01:02:07;5.45;;;1.20;;
20491;SDS011;10404;51.468;6.762;2023-09-19T01:04:33;5.60;;;1.70;;
20491;SDS011;10404;51.468;6.762;2023-09-19T01:06:59;3.95;;;1.33;;
20491;SDS011;10404;51.468;6.762;2023-09-19T01:09:24;3.10;;;1.75;;
20491;SDS011;10404;51.468;6.762;2023-09-19T01:11:52;5.80;;;1.75;;
20491;SDS011;10404;51.468;6.762;2023-09-19T01:17:29;3.42;;;1.77;;
20491;SDS011;10404;51.468;6.762;2023-09-19T01:20:16;7.07;;;1.63;;
20491;SDS011;10404;51.468;6.762;2023-09-19T01:31:33;4.75;;;1.42;;
20491;SDS011;10404;51.468;6.762;2023-09-19T01:34:02;8.55;;;1.90;;
20491;SDS011;10404;51.468;6.762;2023-09-19T01:36:34;4.47;;;1.38;;
20491;SDS011;10404;51.468;6.762;2023-09-19T01:39:11;4.47;;;2.13;;
20491;SDS011;10404;51.468;6.762;2023-09-19T01:41:41;3.55;;;1.50;;
20491;SDS011;10404;51.468;6.762;2023-09-19T01:44:11;4.45;;;1.40;;
20491;SDS011;10404;51.468;6.762;2023-09-19T01:46:45;4.45;;;1.70;;
20491;SDS011;10404;51.468;6.762;2023-09-19T01:52:05;6.38;;;1.98;;
20491;SDS011;10404;51.468;6.762;2023-09-19T01:54:50;4.28;;;1.60;;
20491;SDS011;10404;51.468;6.762;2023-09-19T01:57:27;2.80;;;1.70;;
20491;SDS011;10404;51.468;6.762;2023-09-19T02:00:03;3.72;;;1.42;;
20491;SDS011;10404;51.468;6.762;2023-09-19T02:02:38;3.35;;;1.30;;
20491;SDS011;10404;51.468;6.762;2023-09-19T02:05:05;3.53;;;1.30;;
20491;SDS011;10404;51.468;6.762;2023-09-19T02:07:31;4.32;;;1.63;;
20491;SDS011;10404;51.468;6.762;2023-09-19T02:09:58;5.05;;;1.95;;
20491;SDS011;10404;51.468;6.762;2023-09-19T02:12:28;2.58;;;1.20;;
20491;SDS011;10404;51.468;6.762;2023-09-19T02:14:55;5.63;;;1.52;;
20491;SDS011;10404;51.468;6.762;2023-09-19T02:17:22;4.80;;;1.48;;
20491;SDS011;10404;51.468;6.762;2023-09-19T02:19:51;4.50;;;1.58;;
20491;SDS011;10404;51.468;6.762;2023-09-19T02:22:17;4.72;;;1.33;;
20491;SDS011;10404;51.468;6.762;2023-09-19T02:24:42;2.95;;;1.25;;
20491;SDS011;10404;51.468;6.762;2023-09-19T02:27:08;3.95;;;1.75;;
20491;SDS011;10404;51.468;6.762;2023-09-19T02:29:34;7.03;;;1.98;;
20491;SDS011;10404;51.468;6.762;2023-09-19T02:32:00;3.97;;;1.35;;
20491;SDS011;10404;51.468;6.762;2023-09-19T02:34:28;2.97;;;1.50;;
20491;SDS011;10404;51.468;6.762;2023-09-19T02:36:54;4.97;;;1.70;;
20491;SDS011;10404;51.468;6.762;2023-09-19T02:39:21;5.40;;;1.70;;
20491;SDS011;10404;51.468;6.762;2023-09-19T02:41:46;3.60;;;1.40;;
20491;SDS011;10404;51.468;6.762;2023-09-19T02:44:12;3.90;;;1.63;;
20491;SDS011;10404;51.468;6.762;2023-09-19T02:46:39;5.07;;;1.38;;
20491;SDS011;10404;51.468;6.762;2023-09-19T02:49:05;5.20;;;1.75;;
20491;SDS011;10404;51.468;6.762;2023-09-19T02:51:31;5.53;;;1.23;;
20491;SDS011;10404;51.468;6.762;2023-09-19T02:53:58;5.47;;;2.00;;
20491;SDS011;10404;51.468;6.762;2023-09-19T02:56:26;4.25;;;1.17;;
20491;SDS011;10404;51.468;6.762;2023-09-19T02:58:51;3.38;;;1.50;;
20491;SDS011;10404;51.468;6.762;2023-09-19T03:01:18;4.15;;;1.63;;
20491;SDS011;10404;51.468;6.762;2023-09-19T03:03:44;4.05;;;1.40;;
20491;SDS011;10404;51.468;6.762;2023-09-19T03:06:11;3.38;;;1.20;;
20491;SDS011;10404;51.468;6.762;2023-09-19T03:08:38;4.30;;;1.58;;
20491;SDS011;10404;51.468;6.762;2023-09-19T03:11:05;4.25;;;1.52;;
20491;SDS011;10404;51.468;6.762;2023-09-19T03:13:31;3.25;;;1.30;;
20491;SDS011;10404;51.468;6.762;2023-09-19T03:15:57;4.53;;;1.90;;
20491;SDS011;10404;51.468;6.762;2023-09-19T03:18:23;3.85;;;1.45;;
20491;SDS011;10404;51.468;6.762;2023-09-19T03:20:55;5.90;;;1.50;;
20491;SDS011;10404;51.468;6.762;2023-09-19T03:23:21;4.53;;;1.83;;
20491;SDS011;10404;51.468;6.762;2023-09-19T03:25:47;4.63;;;1.30;;
20491;SDS011;10404;51.468;6.762;2023-09-19T03:28:13;4.30;;;1.90;;
20491;SDS011;10404;51.468;6.762;2023-09-19T03:30:40;4.90;;;1.23;;
20491;SDS011;10404;51.468;6.762;2023-09-19T03:33:07;3.60;;;1.08;;
20491;SDS011;10404;51.468;6.762;2023-09-19T03:35:33;5.35;;;1.20;;
20491;SDS011;10404;51.468;6.762;2023-09-19T03:37:59;5.32;;;1.63;;
20491;SDS011;10404;51.468;6.762;2023-09-19T03:40:25;4.15;;;1.38;;
20491;SDS011;10404;51.468;6.762;2023-09-19T03:42:51;2.38;;;1.25;;
20491;SDS011;10404;51.468;6.762;2023-09-19T03:45:16;3.70;;;1.38;;
20491;SDS011;10404;51.468;6.762;2023-09-19T03:47:43;2.78;;;1.20;;
20491;SDS011;10404;51.468;6.762;2023-09-19T03:50:09;4.53;;;1.63;;
20491;SDS011;10404;51.468;6.762;2023-09-19T03:52:40;4.85;;;1.48;;
20491;SDS011;10404;51.468;6.762;2023-09-19T03:55:06;3.38;;;1.30;;
20491;SDS011;10404;51.468;6.762;2023-09-19T03:57:32;4.70;;;1.50;;
20491;SDS011;10404;51.468;6.762;2023-09-19T03:59:57;4.35;;;1.38;;
20491;SDS011;10404;51.468;6.762;2023-09-19T04:02:23;4.25;;;1.88;;
20491;SDS011;10404;51.468;6.762;2023-09-19T04:04:49;5.55;;;1.73;;
20491;SDS011;10404;51.468;6.762;2023-09-19T04:07:16;2.42;;;1.27;;
20491;SDS011;10404;51.468;6.762;2023-09-19T04:09:42;2.70;;;1.20;;
20491;SDS011;10404;51.468;6.762;2023-09-19T04:12:07;3.10;;;1.20;;
20491;SDS011;10404;51.468;6.762;2023-09-19T04:14:36;3.83;;;1.33;;
20491;SDS011;10404;51.468;6.762;2023-09-19T04:17:02;3.40;;;1.38;;
20491;SDS011;10404;51.468;6.762;2023-09-19T04:19:28;4.18;;;1.77;;
20491;SDS011;10404;51.468;6.762;2023-09-19T04:21:54;4.13;;;1.60;;
20491;SDS011;10404;51.468;6.762;2023-09-19T04:24:19;4.35;;;1.35;;
20491;SDS011;10404;51.468;6.762;2023-09-19T04:26:45;4.30;;;1.35;;
20491;SDS011;10404;51.468;6.762;2023-09-19T04:29:11;4.03;;;1.35;;
20491;SDS011;10404;51.468;6.762;2023-09-19T04:31:39;5.72;;;1.85;;
20491;SDS011;10404;51.468;6.762;2023-09-19T04:34:05;4.78;;;1.63;;
20491;SDS011;10404;51.468;6.762;2023-09-19T04:36:31;3.85;;;1.45;;
20491;SDS011;10404;51.468;6.762;2023-09-19T04:38:56;4.85;;;1.70;;
20491;SDS011;10404;51.468;6.762;2023-09-19T04:41:22;4.18;;;2.33;;
20491;SDS011;10404;51.468;6.762;2023-09-19T04:43:48;5.90;;;2.38;;
20491;SDS011;10404;51.468;6.762;2023-09-19T04:46:15;7.68;;;2.10;;
20491;SDS011;10404;51.468;6.762;2023-09-19T04:48:42;4.75;;;2.05;;
20491;SDS011;10404;51.468;6.762;2023-09-19T04:51:08;4.85;;;2.05;;
20491;SDS011;10404;51.468;6.762;2023-09-19T04:53:35;9.32;;;2.80;;
20491;SDS011;10404;51.468;6.762;2023-09-19T04:56:01;6.60;;;2.70;;
20491;SDS011;10404;51.468;6.762;2023-09-19T04:58:28;6.07;;;2.90;;
20491;SDS011;10404;51.468;6.762;2023-09-19T05:00:54;5.10;;;2.67;;
20491;SDS011;10404;51.468;6.762;2023-09-19T05:03:19;6.47;;;2.83;;
20491;SDS011;10404;51.468;6.762;2023-09-19T05:05:46;6.82;;;2.88;;
20491;SDS011;10404;51.468;6.762;2023-09-19T05:08:12;7.82;;;3.13;;
20491;SDS011;10404;51.468;6.762;2023-09-19T05:10:39;6.35;;;2.50;;
20491;SDS011;10404;51.468;6.762;2023-09-19T05:13:05;5.53;;;2.60;;
20491;SDS011;10404;51.468;6.762;2023-09-19T05:15:32;10.55;;;3.10;;
20491;SDS011;10404;51.468;6.762;2023-09-19T05:17:58;5.57;;;2.67;;
20491;SDS011;10404;51.468;6.762;2023-09-19T05:20:24;6.32;;;2.92;;
20491;SDS011;10404;51.468;6.762;2023-09-19T05:23:01;8.73;;;3.15;;
20491;SDS011;10404;51.468;6.762;2023-09-19T05:25:28;6.88;;;2.60;;
20491;SDS011;10404;51.468;6.762;2023-09-19T05:27:56;7.13;;;3.33;;
20491;SDS011;10404;51.468;6.762;2023-09-19T05:30:23;6.13;;;3.10;;
20491;SDS011;10404;51.468;6.762;2023-09-19T05:32:49;9.40;;;2.90;;
20491;SDS011;10404;51.468;6.762;2023-09-19T05:35:16;4.97;;;2.83;;
20491;SDS011;10404;51.468;6.762;2023-09-19T05:37:42;6.25;;;2.85;;
20491;SDS011;10404;51.468;6.762;2023-09-19T05:40:07;5.97;;;2.45;;
20491;SDS011;10404;51.468;6.762;2023-09-19T05:42:37;7.97;;;3.30;;
20491;SDS011;10404;51.468;6.762;2023-09-19T05:45:04;6.78;;;2.75;;
20491;SDS011;10404;51.468;6.762;2023-09-19T05:47:31;7.03;;;2.78;;
20491;SDS011;10404;51.468;6.762;2023-09-19T05:49:57;5.55;;;2.50;;
20491;SDS011;10404;51.468;6.762;2023-09-19T05:52:24;4.75;;;2.50;;
20491;SDS011;10404;51.468;6.762;2023-09-19T05:54:50;5.03;;;2.22;;
20491;SDS011;10404;51.468;6.762;2023-09-19T05:57:16;6.53;;;2.33;;
20491;SDS011;10404;51.468;6.762;2023-09-19T05:59:41;5.75;;;2.25;;
20491;SDS011;10404;51.468;6.762;2023-09-19T06:02:08;4.05;;;1.67;;
20491;SDS011;10404;51.468;6.762;2023-09-19T06:04:34;5.50;;;2.08;;
20491;SDS011;10404;51.468;6.762;2023-09-19T06:07:00;5.85;;;2.90;;
20491;SDS011;10404;51.468;6.762;2023-09-19T06:09:26;8.52;;;2.47;;
20491;SDS011;10404;51.468;6.762;2023-09-19T06:11:53;6.68;;;2.15;;
20491;SDS011;10404;51.468;6.762;2023-09-19T06:14:22;6.57;;;2.28;;
20491;SDS011;10404;51.468;6.762;2023-09-19T06:16:49;5.97;;;2.05;;
20491;SDS011;10404;51.468;6.762;2023-09-19T06:19:15;5.65;;;2.35;;
20491;SDS011;10404;51.468;6.762;2023-09-19T06:21:41;9.50;;;1.90;;
20491;SDS011;10404;51.468;6.762;2023-09-19T06:24:07;5.20;;;1.77;;
20491;SDS011;10404;51.468;6.762;2023-09-19T06:26:32;6.03;;;1.70;;
20491;SDS011;10404;51.468;6.762;2023-09-19T06:28:58;5.03;;;1.95;;
20491;SDS011;10404;51.468;6.762;2023-09-19T06:31:25;3.20;;;1.60;;
20491;SDS011;10404;51.468;6.762;2023-09-19T06:33:51;3.63;;;1.80;;
20491;SDS011;10404;51.468;6.762;2023-09-19T06:36:17;6.25;;;1.92;;
20491;SDS011;10404;51.468;6.762;2023-09-19T06:38:44;4.15;;;1.70;;
20491;SDS011;10404;51.468;6.762;2023-09-19T06:41:10;4.18;;;1.50;;
20491;SDS011;10404;51.468;6.762;2023-09-19T06:43:36;4.22;;;1.92;;
20491;SDS011;10404;51.468;6.762;2023-09-19T06:46:02;4.95;;;1.63;;
20491;SDS011;10404;51.468;6.762;2023-09-19T06:48:27;5.35;;;1.67;;
20491;SDS011;10404;51.468;6.762;2023-09-19T06:50:58;7.82;;;2.00;;
20491;SDS011;10404;51.468;6.762;2023-09-19T06:53:27;4.68;;;1.40;;
20491;SDS011;10404;51.468;6.762;2023-09-19T06:55:56;5.30;;;2.00;;
20491;SDS011;10404;51.468;6.762;2023-09-19T06:58:22;5.18;;;1.60;;
20491;SDS011;10404;51.468;6.762;2023-09-19T07:00:48;6.78;;;2.38;;
20491;SDS011;10404;51.468;6.762;2023-09-19T07:03:15;7.20;;;1.60;;
20491;SDS011;10404;51.468;6.762;2023-09-19T07:05:45;3.58;;;1.40;;
20491;SDS011;10404;51.468;6.762;2023-09-19T07:08:13;5.55;;;1.70;;
20491;SDS011;10404;51.468;6.762;2023-09-19T07:10:39;4.05;;;1.40;;
20491;SDS011;10404;51.468;6.762;2023-09-19T07:13:13;5.45;;;1.60;;
20491;SDS011;10404;51.468;6.762;2023-09-19T07:15:41;4.43;;;1.75;;
20491;SDS011;10404;51.468;6.762;2023-09-19T07:18:11;4.35;;;1.88;;
20491;SDS011;10404;51.468;6.762;2023-09-19T07:20:41;5.60;;;1.75;;
20491;SDS011;10404;51.468;6.762;2023-09-19T07:23:17;6.07;;;1.50;;
20491;SDS011;10404;51.468;6.762;2023-09-19T07:25:44;6.13;;;2.20;;
20491;SDS011;10404;51.468;6.762;2023-09-19T07:28:11;5.70;;;2.00;;
20491;SDS011;10404;51.468;6.762;2023-09-19T07:30:37;4.70;;;1.50;;
20491;SDS011;10404;51.468;6.762;2023-09-19T07:33:03;5.55;;;1.58;;
20491;SDS011;10404;51.468;6.762;2023-09-19T07:35:30;6.53;;;1.50;;
20491;SDS011;10404;51.468;6.762;2023-09-19T07:37:56;7.28;;;2.05;;
20491;SDS011;10404;51.468;6.762;2023-09-19T07:40:23;7.68;;;2.00;;
20491;SDS011;10404;51.468;6.762;2023-09-19T07:42:52;8.93;;;2.72;;
20491;SDS011;10404;51.468;6.762;2023-09-19T07:45:18;7.10;;;2.70;;
20491;SDS011;10404;51.468;6.762;2023-09-19T07:47:47;9.10;;;2.78;;
20491;SDS011;10404;51.468;6.762;2023-09-19T07:50:13;12.00;;;2.83;;
20491;SDS011;10404;51.468;6.762;2023-09-19T07:52:41;10.15;;;2.55;;
20491;SDS011;10404;51.468;6.762;2023-09-19T07:55:08;6.13;;;2.47;;
20491;SDS011;10404;51.468;6.762;2023-09-19T07:57:34;7.97;;;2.72;;
20491;SDS011;10404;51.468;6.762;2023-09-19T08:00:01;9.73;;;2.42;;
20491;SDS011;10404;51.468;6.762;2023-09-19T08:02:29;8.98;;;2.42;;
20491;SDS011;10404;51.468;6.762;2023-09-19T08:04:59;9.18;;;2.70;;
20491;SDS011;10404;51.468;6.762;2023-09-19T08:07:25;6.40;;;3.05;;
20491;SDS011;10404;51.468;6.762;2023-09-19T08:09:51;4.50;;;2.13;;
20491;SDS011;10404;51.468;6.762;2023-09-19T08:12:16;6.95;;;2.38;;
20491;SDS011;10404;51.468;6.762;2023-09-19T08:14:42;8.30;;;3.08;;
20491;SDS011;10404;51.468;6.762;2023-09-19T08:17:08;6.85;;;2.58;;
20491;SDS011;10404;51.468;6.762;2023-09-19T08:19:34;9.05;;;3.28;;
20491;SDS011;10404;51.468;6.762;2023-09-19T08:22:01;6.95;;;2.33;;
20491;SDS011;10404;51.468;6.762;2023-09-19T08:24:28;9.15;;;2.40;;
20491;SDS011;10404;51.468;6.762;2023-09-19T08:26:55;8.68;;;2.60;;
20491;SDS011;10404;51.468;6.762;2023-09-19T08:29:21;5.45;;;1.92;;
20491;SDS011;10404;51.468;6.762;2023-09-19T08:31:53;6.93;;;2.40;;
20491;SDS011;10404;51.468;6.762;2023-09-19T08:34:25;6.30;;;2.53;;
20491;SDS011;10404;51.468;6.762;2023-09-19T08:36:59;5.63;;;2.30;;
20491;SDS011;10404;51.468;6.762;2023-09-19T08:39:24;7.32;;;2.40;;
20491;SDS011;10404;51.468;6.762;2023-09-19T08:41:58;5.70;;;1.90;;
20491;SDS011;10404;51.468;6.762;2023-09-19T08:44:25;6.47;;;2.25;;
20491;SDS011;10404;51.468;6.762;2023-09-19T08:46:53;6.38;;;2.40;;
20491;SDS011;10404;51.468;6.762;2023-09-19T08:49:25;6.45;;;2.42;;
20491;SDS011;10404;51.468;6.762;2023-09-19T08:52:05;5.72;;;3.00;;
20491;SDS011;10404;51.468;6.762;2023-09-19T08:54:41;7.03;;;2.22;;
20491;SDS011;10404;51.468;6.762;2023-09-19T08:57:08;4.93;;;2.17;;
20491;SDS011;10404;51.468;6.762;2023-09-19T08:59:39;7.47;;;3.15;;
20491;SDS011;10404;51.468;6.762;2023-09-19T09:02:10;6.75;;;2.58;;
20491;SDS011;10404;51.468;6.762;2023-09-19T09:04:39;6.40;;;2.53;;
20491;SDS011;10404;51.468;6.762;2023-09-19T09:07:10;7.93;;;3.33;;
20491;SDS011;10404;51.468;6.762;2023-09-19T09:09:38;8.95;;;2.75;;
20491;SDS011;10404;51.468;6.762;2023-09-19T09:12:12;7.93;;;2.50;;
20491;SDS011;10404;51.468;6.762;2023-09-19T09:14:39;6.45;;;2.20;;
20491;SDS011;10404;51.468;6.762;2023-09-19T09:17:06;6.43;;;2.33;;
20491;SDS011;10404;51.468;6.762;2023-09-19T09:19:32;8.75;;;2.22;;
20491;SDS011;10404;51.468;6.762;2023-09-19T09:22:10;6.97;;;2.35;;
20491;SDS011;10404;51.468;6.762;2023-09-19T09:24:37;7.78;;;2.40;;
20491;SDS011;10404;51.468;6.762;2023-09-19T09:27:15;8.40;;;2.28;;
20491;SDS011;10404;51.468;6.762;2023-09-19T09:29:46;5.72;;;2.50;;
20491;SDS011;10404;51.468;6.762;2023-09-19T09:32:19;6.40;;;2.50;;
20491;SDS011;10404;51.468;6.762;2023-09-19T09:34:47;5.38;;;1.90;;
20491;SDS011;10404;51.468;6.762;2023-09-19T09:37:15;5.32;;;2.05;;
20491;SDS011;10404;51.468;6.762;2023-09-19T09:39:54;4.05;;;2.28;;
20491;SDS011;10404;51.468;6.762;2023-09-19T09:42:42;7.28;;;2.20;;
20491;SDS011;10404;51.468;6.762;2023-09-19T09:47:48;7.75;;;2.20;;
20491;SDS011;10404;51.468;6.762;2023-09-19T09:50:27;8.65;;;3.75;;
20491;SDS011;10404;51.468;6.762;2023-09-19T09:52:54;7.78;;;2.13;;
20491;SDS011;10404;51.468;6.762;2023-09-19T09:58:17;5.47;;;2.13;;
20491;SDS011;10404;51.468;6.762;2023-09-19T10:00:53;8.50;;;1.98;;
20491;SDS011;10404;51.468;6.762;2023-09-19T10:03:32;6.05;;;2.03;;
20491;SDS011;10404;51.468;6.762;2023-09-19T10:06:04;5.20;;;2.00;;
20491;SDS011;10404;51.468;6.762;2023-09-19T10:08:36;4.95;;;2.33;;
20491;SDS011;10404;51.468;6.762;2023-09-19T10:11:12;5.65;;;2.28;;
20491;SDS011;10404;51.468;6.762;2023-09-19T10:13:41;9.30;;;2.55;;
20491;SDS011;10404;51.468;6.762;2023-09-19T10:16:11;6.88;;;1.83;;
20491;SDS011;10404;51.468;6.762;2023-09-19T10:18:39;7.38;;;2.30;;
20491;SDS011;10404;51.468;6.762;2023-09-19T10:21:06;7.20;;;2.40;;
20491;SDS011;10404;51.468;6.762;2023-09-19T10:23:34;5.63;;;2.20;;
20491;SDS011;10404;51.468;6.762;2023-09-19T10:26:01;6.97;;;2.58;;
20491;SDS011;10404;51.468;6.762;2023-09-19T10:28:30;4.95;;;2.38;;
20491;SDS011;10404;51.468;6.762;2023-09-19T10:30:57;4.13;;;2.08;;
20491;SDS011;10404;51.468;6.762;2023-09-19T10:33:25;5.35;;;2.33;;
20491;SDS011;10404;51.468;6.762;2023-09-19T10:35:51;5.35;;;2.20;;
20491;SDS011;10404;51.468;6.762;2023-09-19T10:38:22;7.72;;;2.45;;
20491;SDS011;10404;51.468;6.762;2023-09-19T10:40:50;6.40;;;2.58;;
20491;SDS011;10404;51.468;6.762;2023-09-19T10:43:20;5.10;;;1.83;;
20491;SDS011;10404;51.468;6.762;2023-09-19T10:45:49;7.03;;;2.08;;
20491;SDS011;10404;51.468;6.762;2023-09-19T10:48:17;7.93;;;2.17;;
20491;SDS011;10404;51.468;6.762;2023-09-19T10:51:06;4.07;;;2.10;;
20491;SDS011;10404;51.468;6.762;2023-09-19T10:53:55;5.25;;;2.00;;
20491;SDS011;10404;51.468;6.762;2023-09-19T10:56:34;5.47;;;1.95;;
20491;SDS011;10404;51.468;6.762;2023-09-19T10:59:05;5.22;;;2.00;;
20491;SDS011;10404;51.468;6.762;2023-09-19T11:01:46;6.57;;;2.17;;
20491;SDS011;10404;51.468;6.762;2023-09-19T11:04:20;4.47;;;1.90;;
20491;SDS011;10404;51.468;6.762;2023-09-19T11:07:00;6.78;;;2.00;;
20491;SDS011;10404;51.468;6.762;2023-09-19T11:14:54;5.63;;;2.30;;
20491;SDS011;10404;51.468;6.762;2023-09-19T11:30:43;6.78;;;1.60;;
20491;SDS011;10404;51.468;6.762;2023-09-19T11:46:28;8.88;;;2.05;;
20491;SDS011;10404;51.468;6.762;2023-09-19T11:49:13;5.72;;;1.73;;
20491;SDS011;10404;51.468;6.762;2023-09-19T11:51:45;5.60;;;2.20;;
20491;SDS011;10404;51.468;6.762;2023-09-19T11:54:12;5.82;;;1.80;;
20491;SDS011;10404;51.468;6.762;2023-09-19T11:56:49;5.75;;;1.83;;
20491;SDS011;10404;51.468;6.762;2023-09-19T11:59:25;6.20;;;1.75;;
20491;SDS011;10404;51.468;6.762;2023-09-19T12:01:58;5.85;;;1.90;;
20491;SDS011;10404;51.468;6.762;2023-09-19T12:04:38;5.18;;;1.73;;
20491;SDS011;10404;51.468;6.762;2023-09-19T12:07:08;3.75;;;1.63;;
20491;SDS011;10404;51.468;6.762;2023-09-19T12:09:41;4.97;;;1.40;;
20491;SDS011;10404;51.468;6.762;2023-09-19T12:12:09;5.97;;;2.30;;
20491;SDS011;10404;51.468;6.762;2023-09-19T12:14:41;5.03;;;2.08;;
20491;SDS011;10404;51.468;6.762;2023-09-19T12:17:13;5.28;;;2.08;;
20491;SDS011;10404;51.468;6.762;2023-09-19T12:19:38;6.30;;;2.20;;
20491;SDS011;10404;51.468;6.762;2023-09-19T12:22:08;6.60;;;2.28;;
20491;SDS011;10404;51.468;6.762;2023-09-19T12:24:34;4.57;;;1.73;;
20491;SDS011;10404;51.468;6.762;2023-09-19T12:27:04;3.22;;;1.50;;
20491;SDS011;10404;51.468;6.762;2023-09-19T12:29:31;4.53;;;1.80;;
20491;SDS011;10404;51.468;6.762;2023-09-19T12:32:06;5.95;;;2.05;;
20491;SDS011;10404;51.468;6.762;2023-09-19T12:34:32;6.20;;;1.83;;
20491;SDS011;10404;51.468;6.762;2023-09-19T12:39:51;4.05;;;1.70;;
20491;SDS011;10404;51.468;6.762;2023-09-19T12:42:21;4.90;;;1.65;;
20491;SDS011;10404;51.468;6.762;2023-09-19T12:44:48;8.48;;;2.00;;
20491;SDS011;10404;51.468;6.762;2023-09-19T12:47:20;6.03;;;2.38;;
20491;SDS011;10404;51.468;6.762;2023-09-19T12:50:22;7.05;;;1.83;;
20491;SDS011;10404;51.468;6.762;2023-09-19T12:52:52;8.07;;;2.53;;
20491;SDS011;10404;51.468;6.762;2023-09-19T13:00:36;5.63;;;1.98;;
20491;SDS011;10404;51.468;6.762;2023-09-19T13:06:00;4.25;;;1.60;;
20491;SDS011;10404;51.468;6.762;2023-09-19T13:08:30;3.75;;;1.40;;
20491;SDS011;10404;51.468;6.762;2023-09-19T13:16:10;5.18;;;1.60;;
20491;SDS011;10404;51.468;6.762;2023-09-19T13:18:57;3.47;;;1.58;;
20491;SDS011;10404;51.468;6.762;2023-09-19T13:21:30;4.45;;;1.77;;
20491;SDS011;10404;51.468;6.762;2023-09-19T13:24:21;3.70;;;1.52;;
20491;SDS011;10404;51.468;6.762;2023-09-19T13:26:51;4.53;;;1.42;;
20491;SDS011;10404;51.468;6.762;2023-09-19T13:29:17;3.00;;;1.30;;
20491;SDS011;10404;51.468;6.762;2023-09-19T13:31:45;4.95;;;1.58;;
20491;SDS011;10404;51.468;6.762;2023-09-19T13:39:04;4.93;;;1.65;;
20491;SDS011;10404;51.468;6.762;2023-09-19T13:41:31;5.32;;;1.80;;
20491;SDS011;10404;51.468;6.762;2023-09-19T13:43:57;5.28;;;1.52;;
20491;SDS011;10404;51.468;6.762;2023-09-19T13:46:23;5.03;;;1.60;;
20491;SDS011;10404;51.468;6.762;2023-09-19T13:48:51;2.15;;;1.30;;
20491;SDS011;10404;51.468;6.762;2023-09-19T13:51:20;3.47;;;1.30;;
20491;SDS011;10404;51.468;6.762;2023-09-19T13:53:48;4.65;;;1.15;;
20491;SDS011;10404;51.468;6.762;2023-09-19T13:56:15;3.10;;;1.13;;
20491;SDS011;10404;51.468;6.762;2023-09-19T13:58:41;3.38;;;1.30;;
20491;SDS011;10404;51.468;6.762;2023-09-19T14:01:07;4.50;;;1.92;;
20491;SDS011;10404;51.468;6.762;2023-09-19T14:03:37;3.35;;;1.08;;
20491;SDS011;10404;51.468;6.762;2023-09-19T14:06:06;3.33;;;1.58;;
20491;SDS011;10404;51.468;6.762;2023-09-19T14:08:31;3.70;;;1.40;;
20491;SDS011;10404;51.468;6.762;2023-09-19T14:10:59;3.42;;;1.35;;
20491;SDS011;10404;51.468;6.762;2023-09-19T14:13:30;2.13;;;1.80;;
20491;SDS011;10404;51.468;6.762;2023-09-19T14:15:56;2.92;;;1.30;;
20491;SDS011;10404;51.468;6.762;2023-09-19T14:18:21;3.60;;;1.42;;
20491;SDS011;10404;51.468;6.762;2023-09-19T14:20:47;5.25;;;1.45;;
20491;SDS011;10404;51.468;6.762;2023-09-19T14:23:13;3.58;;;1.75;;
20491;SDS011;10404;51.468;6.762;2023-09-19T14:25:38;3.20;;;1.40;;
20491;SDS011;10404;51.468;6.762;2023-09-19T14:28:06;2.97;;;1.25;;
20491;SDS011;10404;51.468;6.762;2023-09-19T14:30:34;3.78;;;1.35;;
20491;SDS011;10404;51.468;6.762;2023-09-19T14:33:02;3.17;;;1.48;;
20491;SDS011;10404;51.468;6.762;2023-09-19T14:35:28;3.15;;;1.30;;
20491;SDS011;10404;51.468;6.762;2023-09-19T14:37:53;3.58;;;1.33;;
20491;SDS011;10404;51.468;6.762;2023-09-19T14:40:20;3.08;;;0.90;;
20491;SDS011;10404;51.468;6.762;2023-09-19T14:42:47;3.65;;;1.27;;
20491;SDS011;10404;51.468;6.762;2023-09-19T14:45:13;3.15;;;1.52;;
20491;SDS011;10404;51.468;6.762;2023-09-19T14:47:43;3.42;;;1.08;;
20491;SDS011;10404;51.468;6.762;2023-09-19T14:50:11;2.55;;;0.90;;
20491;SDS011;10404;51.468;6.762;2023-09-19T14:52:37;2.75;;;1.17;;
20491;SDS011;10404;51.468;6.762;2023-09-19T14:55:05;3.97;;;1.20;;
20491;SDS011;10404;51.468;6.762;2023-09-19T14:57:31;1.75;;;0.90;;
20491;SDS011;10404;51.468;6.762;2023-09-19T14:59:57;3.13;;;1.27;;
20491;SDS011;10404;51.468;6.762;2023-09-19T15:02:23;2.63;;;0.95;;
20491;SDS011;10404;51.468;6.762;2023-09-19T15:04:49;2.92;;;1.00;;
20491;SDS011;10404;51.468;6.762;2023-09-19T15:07:15;3.20;;;1.33;;
20491;SDS011;10404;51.468;6.762;2023-09-19T15:09:42;3.17;;;0.90;;
20491;SDS011;10404;51.468;6.762;2023-09-19T15:12:08;2.28;;;0.93;;
20491;SDS011;10404;51.468;6.762;2023-09-19T15:14:34;1.83;;;0.80;;
20491;SDS011;10404;51.468;6.762;2023-09-19T15:16:59;2.53;;;0.88;;
20491;SDS011;10404;51.468;6.762;2023-09-19T15:19:25;1.98;;;1.05;;
20491;SDS011;10404;51.468;6.762;2023-09-19T15:21:51;2.17;;;0.85;;
20491;SDS011;10404;51.468;6.762;2023-09-19T15:24:16;2.08;;;0.90;;
20491;SDS011;10404;51.468;6.762;2023-09-19T15:26:43;2.80;;;0.90;;
20491;SDS011;10404;51.468;6.762;2023-09-19T15:29:09;3.63;;;1.77;;
20491;SDS011;10404;51.468;6.762;2023-09-19T15:31:35;2.80;;;1.08;;
20491;SDS011;10404;51.468;6.762;2023-09-19T15:34:02;2.20;;;0.98;;
20491;SDS011;10404;51.468;6.762;2023-09-19T15:36:28;3.95;;;1.58;;
20491;SDS011;10404;51.468;6.762;2023-09-19T15:39:01;5.45;;;1.45;;
20491;SDS011;10404;51.468;6.762;2023-09-19T15:41:29;2.22;;;0.98;;
20491;SDS011;10404;51.468;6.762;2023-09-19T15:43:56;3.42;;;0.95;;
20491;SDS011;10404;51.468;6.762;2023-09-19T15:46:24;3.78;;;1.35;;
20491;SDS011;10404;51.468;6.762;2023-09-19T15:48:51;2.95;;;1.17;;
20491;SDS011;10404;51.468;6.762;2023-09-19T15:51:18;2.83;;;1.30;;
20491;SDS011;10404;51.468;6.762;2023-09-19T15:53:47;2.78;;;0.98;;
20491;SDS011;10404;51.468;6.762;2023-09-19T15:56:14;3.25;;;1.30;;
20491;SDS011;10404;51.468;6.762;2023-09-19T15:58:43;2.53;;;1.20;;
20491;SDS011;10404;51.468;6.762;2023-09-19T16:01:09;2.42;;;1.38;;
20491;SDS011;10404;51.468;6.762;2023-09-19T16:03:36;2.28;;;1.10;;
20491;SDS011;10404;51.468;6.762;2023-09-19T16:06:07;3.80;;;1.00;;
20491;SDS011;10404;51.468;6.762;2023-09-19T16:08:44;3.08;;;1.10;;